createdAt,value
2023-05-24T00:02:57.854Z,100.00
2023-05-24T00:08:01.264Z,100.00
2023-05-24T00:13:06.408Z,100.00
2023-05-24T00:18:09.285Z,100.00
2023-05-24T00:23:12.208Z,100.00
2023-05-24T00:28:16.406Z,100.00
2023-05-24T00:33:19.260Z,100.00
2023-05-24T00:38:22.062Z,100.00
2023-05-24T00:43:26.277Z,100.00
2023-05-24T00:48:29.134Z,100.00
2023-05-24T00:53:34.372Z,100.00
2023-05-24T00:58:38.879Z,100.00
2023-05-24T01:03:42.032Z,100.00
2023-05-24T01:09:09.339Z,100.00
2023-05-24T01:14:21.959Z,100.00
2023-05-24T01:19:44.831Z,100.00
2023-05-24T01:25:02.157Z,100.00
2023-05-24T01:30:08.674Z,100.00
2023-05-24T01:35:11.569Z,100.00
2023-05-24T01:40:15.324Z,100.00
2023-05-24T01:45:26.817Z,100.00
2023-05-24T01:50:33.237Z,100.00
2023-05-24T01:55:37.881Z,100.00
2023-05-24T02:00:43.545Z,100.00
2023-05-24T02:05:46.914Z,100.00
2023-05-24T02:10:49.805Z,100.00
2023-05-24T02:15:55.880Z,100.00
2023-05-24T02:21:02.413Z,100.00
2023-05-24T02:26:05.333Z,100.00
2023-05-24T02:31:10.287Z,100.00
2023-05-24T02:36:13.356Z,100.00
2023-05-24T02:41:18.109Z,100.00
2023-05-24T02:46:22.398Z,100.00
2023-05-24T02:51:26.306Z,100.00
2023-05-24T02:56:29.161Z,100.00
2023-05-24T03:01:34.476Z,100.00
2023-05-24T03:06:38.732Z,100.00
2023-05-24T03:11:41.617Z,100.00
2023-05-24T03:16:46.046Z,100.00
2023-05-24T03:21:49.122Z,100.00
2023-05-24T03:26:51.923Z,100.00
2023-05-24T03:31:56.698Z,100.00
2023-05-24T03:37:00.320Z,100.00
2023-05-24T03:42:03.645Z,100.00
2023-05-24T03:47:08.846Z,100.00
2023-05-24T03:52:11.915Z,100.00
2023-05-24T03:57:15.342Z,100.00
2023-05-24T04:02:19.706Z,100.00
2023-05-24T04:07:24.556Z,100.00
2023-05-24T04:25:01.968Z,100.00
2023-05-24T04:30:05.657Z,100.00
2023-05-24T04:35:10.297Z,100.00
2023-05-24T04:40:14.319Z,100.00
2023-05-24T04:45:20.115Z,100.00
2023-05-24T04:50:24.707Z,100.00
2023-05-24T04:55:27.569Z,100.00
2023-05-24T05:00:30.476Z,100.00
2023-05-24T05:05:34.751Z,100.00
2023-05-24T05:10:37.846Z,100.00
2023-05-24T05:15:42.703Z,100.00
2023-05-24T05:20:47.449Z,100.00
2023-05-24T05:25:51.918Z,100.00
2023-05-24T05:30:56.803Z,100.00
2023-05-24T05:36:01.208Z,100.00
2023-05-24T05:41:04.082Z,100.00
2023-05-24T05:46:07.510Z,100.00
2023-05-24T05:51:14.630Z,100.00
2023-05-24T05:56:20.775Z,100.00
2023-05-24T06:01:24.558Z,100.00
2023-05-24T06:06:30.856Z,100.00
2023-05-24T06:11:34.555Z,100.00
2023-05-24T06:16:41.995Z,98.67
2023-05-24T06:21:48.520Z,94.77
2023-05-24T06:26:54.468Z,93.98
2023-05-24T06:31:57.559Z,89.56
2023-05-24T06:37:02.442Z,88.47
2023-05-24T06:42:06.562Z,86.02
2023-05-24T06:47:13.848Z,82.77
2023-05-24T06:52:23.293Z,82.62
2023-05-24T06:57:27.080Z,81.03
2023-05-24T07:02:29.944Z,83.37
2023-05-24T07:07:34.550Z,84.98
2023-05-24T07:12:38.567Z,81.96
2023-05-24T07:17:41.548Z,80.20
2023-05-24T07:22:47.661Z,82.43
2023-05-24T07:27:52.642Z,78.01
2023-05-24T07:32:55.498Z,77.33
2023-05-24T07:37:59.767Z,77.96
2023-05-24T07:43:04.104Z,78.32
2023-05-24T07:48:07.305Z,78.98
2023-05-24T07:53:11.864Z,78.75
2023-05-24T07:58:15.627Z,82.75
2023-05-24T08:03:19.375Z,84.39
2023-05-24T08:08:24.433Z,82.49
2023-05-24T08:13:27.278Z,79.60
2023-05-24T08:18:30.171Z,77.63
2023-05-24T08:23:36.368Z,74.34
2023-05-24T08:28:41.695Z,68.56
2023-05-24T08:33:44.650Z,66.01
2023-05-24T08:38:51.330Z,59.64
2023-05-24T08:43:55.995Z,61.30
2023-05-24T08:49:01.566Z,61.75
2023-05-24T08:54:09.039Z,60.18
2023-05-24T08:59:13.866Z,62.06
2023-05-24T09:04:17.674Z,63.38
2023-05-24T09:09:27.636Z,64.91
2023-05-24T09:14:30.653Z,63.67
2023-05-24T09:19:33.488Z,59.68
2023-05-24T09:24:43.718Z,59.32
2023-05-24T09:29:49.018Z,56.92
2023-05-24T09:34:53.700Z,53.35
2023-05-24T09:39:58.181Z,56.84
2023-05-24T09:45:01.833Z,57.07
2023-05-24T09:50:09.746Z,56.34
2023-05-24T09:55:15.291Z,56.26
2023-05-24T10:00:24.075Z,55.36
2023-05-24T10:05:30.464Z,52.45
2023-05-24T10:10:35.119Z,56.04
2023-05-24T10:15:37.984Z,56.83
2023-05-24T10:20:41.690Z,54.36
2023-05-24T10:25:52.196Z,55.20
2023-05-24T10:31:04.775Z,53.76
2023-05-24T10:36:10.855Z,52.79
2023-05-24T10:41:20.449Z,52.32
2023-05-24T10:46:24.618Z,52.63
2023-05-24T10:51:36.783Z,52.48
2023-05-24T10:56:44.770Z,53.30
2023-05-24T11:01:56.870Z,53.72
2023-05-24T11:07:03.255Z,54.42
2023-05-24T11:12:09.188Z,53.42
2023-05-24T11:17:14.583Z,53.37
2023-05-24T11:22:17.780Z,53.91
2023-05-24T11:27:26.229Z,54.34
2023-05-24T11:32:29.206Z,54.69
2023-05-24T11:37:45.601Z,54.09
2023-05-24T11:42:53.641Z,54.32
2023-05-24T11:47:57.820Z,55.09
2023-05-24T11:53:05.820Z,54.85
2023-05-24T11:58:19.797Z,56.20
2023-05-24T12:03:24.939Z,54.65
2023-05-24T12:08:28.218Z,55.21
2023-05-24T12:13:34.059Z,56.64
2023-05-24T12:18:40.030Z,56.74
2023-05-24T12:23:49.581Z,56.56
2023-05-24T12:28:58.201Z,56.07
2023-05-24T12:34:01.043Z,55.06
2023-05-24T12:39:18.943Z,54.40
2023-05-24T12:44:29.432Z,52.87
2023-05-24T12:49:33.894Z,52.55
2023-05-24T12:54:37.842Z,52.16
2023-05-24T12:59:43.853Z,55.02
2023-05-24T13:04:46.704Z,54.35
2023-05-24T13:09:50.968Z,55.31
2023-05-24T13:14:55.955Z,55.48
2023-05-24T13:19:59.688Z,55.09
2023-05-24T13:25:02.930Z,53.45
2023-05-24T13:30:08.664Z,52.29
2023-05-24T13:35:11.577Z,50.69
2023-05-24T13:40:14.885Z,48.21
2023-05-24T13:45:19.161Z,49.08
2023-05-24T13:50:26.956Z,49.85
2023-05-24T13:55:30.498Z,52.08
2023-05-24T14:00:36.988Z,51.99
2023-05-24T14:05:42.556Z,53.17
2023-05-24T14:10:47.161Z,53.14
2023-05-24T14:15:51.377Z,52.71
2023-05-24T14:20:54.245Z,51.46
2023-05-24T14:25:58.000Z,52.99
2023-05-24T14:31:03.835Z,52.94
2023-05-24T14:36:07.727Z,53.02
2023-05-24T14:41:11.940Z,53.00
2023-05-24T14:46:17.023Z,51.56
2023-05-24T14:51:20.794Z,48.78
2023-05-24T14:56:25.709Z,48.61
2023-05-24T15:01:30.470Z,42.96
2023-05-24T15:06:35.358Z,44.97
2023-05-24T15:11:39.182Z,46.24
2023-05-24T15:16:43.447Z,48.96
2023-05-24T15:21:46.386Z,50.96
2023-05-24T15:26:49.252Z,53.02
2023-05-24T15:31:53.366Z,53.93
2023-05-24T15:36:57.052Z,55.75
2023-05-24T15:41:59.889Z,55.38
2023-05-24T15:47:04.252Z,56.18
2023-05-24T15:52:09.253Z,56.72
2023-05-24T15:57:13.182Z,56.79
2023-05-24T16:02:21.374Z,56.45
2023-05-24T16:07:26.031Z,57.43
2023-05-24T16:12:30.082Z,57.21
2023-05-24T16:17:34.507Z,56.88
2023-05-24T16:22:39.698Z,57.04
2023-05-24T16:27:42.593Z,58.47
2023-05-24T16:32:47.259Z,57.83
2023-05-24T16:37:52.249Z,58.87
2023-05-24T16:42:55.612Z,59.52
2023-05-24T16:48:00.379Z,59.53
2023-05-24T16:53:04.145Z,60.13
2023-05-24T16:58:08.733Z,59.95
2023-05-24T17:03:13.083Z,60.87
2023-05-24T17:08:16.118Z,61.65
2023-05-24T17:13:18.903Z,58.84
2023-05-24T17:18:28.900Z,48.75
2023-05-24T17:23:34.218Z,44.16
2023-05-24T17:28:38.722Z,40.53
2023-05-24T17:33:44.667Z,47.79
2023-05-24T17:38:48.113Z,50.98
2023-05-24T17:43:51.119Z,53.50
2023-05-24T17:48:55.910Z,54.01
2023-05-24T17:53:58.793Z,57.08
2023-05-24T17:59:01.788Z,60.20
2023-05-24T18:04:08.459Z,63.86
2023-05-24T18:09:12.168Z,66.48
2023-05-24T18:14:15.201Z,69.65
2023-05-24T18:19:21.197Z,71.74
2023-05-24T18:24:24.017Z,72.52
2023-05-24T18:29:26.819Z,73.84
2023-05-24T18:34:31.097Z,77.90
2023-05-24T18:39:34.824Z,79.54
2023-05-24T18:44:41.002Z,80.29
2023-05-24T18:49:45.520Z,82.19
2023-05-24T18:54:49.889Z,87.30
2023-05-24T18:59:52.852Z,88.86
2023-05-24T19:04:58.134Z,89.37
2023-05-24T19:10:01.169Z,89.15
2023-05-24T19:15:04.947Z,91.81
2023-05-24T19:20:11.203Z,93.20
2023-05-24T19:25:14.017Z,95.70
2023-05-24T19:30:18.286Z,96.98
2023-05-24T19:35:24.719Z,97.91
2023-05-24T19:40:30.207Z,97.18
2023-05-24T19:45:34.691Z,99.62
2023-05-24T19:50:40.256Z,97.94
2023-05-24T19:55:43.274Z,100.00
2023-05-24T20:00:46.610Z,100.00
2023-05-24T20:05:50.679Z,100.00
2023-05-24T20:10:53.602Z,100.00
2023-05-24T20:15:56.496Z,100.00
2023-05-24T20:21:01.081Z,100.00
2023-05-24T20:26:09.233Z,100.00
2023-05-24T20:31:13.812Z,100.00
2023-05-24T20:36:18.019Z,100.00
2023-05-24T20:41:20.904Z,100.00
2023-05-24T20:46:23.850Z,100.00
2023-05-24T20:51:28.147Z,100.00
2023-05-24T20:56:31.322Z,100.00
2023-05-24T21:01:34.191Z,100.00
2023-05-24T21:06:38.652Z,100.00
2023-05-24T21:11:42.275Z,100.00
2023-05-24T21:16:45.453Z,100.00
2023-05-24T21:21:49.681Z,100.00
2023-05-24T21:26:53.358Z,100.00
2023-05-24T21:31:56.200Z,100.00
2023-05-24T21:37:01.116Z,100.00
2023-05-24T21:42:04.009Z,100.00
2023-05-24T21:47:06.882Z,100.00
2023-05-24T21:52:13.165Z,100.00
2023-05-24T21:57:16.160Z,100.00
2023-05-24T22:02:19.202Z,100.00
2023-05-24T22:07:23.474Z,100.00
2023-05-24T22:12:27.317Z,100.00
2023-05-24T22:17:32.650Z,100.00
2023-05-24T22:22:40.080Z,100.00
2023-05-24T22:27:43.313Z,100.00
2023-05-24T22:32:46.299Z,100.00
2023-05-24T22:37:50.850Z,100.00
2023-05-24T22:42:53.718Z,100.00
2023-05-24T22:47:58.397Z,100.00
2023-05-24T22:53:02.755Z,100.00
2023-05-24T22:58:05.650Z,100.00
2023-05-24T23:03:08.805Z,100.00
2023-05-24T23:08:13.693Z,100.00
2023-05-24T23:13:17.728Z,100.00
2023-05-24T23:18:22.269Z,100.00
2023-05-24T23:23:27.308Z,100.00
2023-05-24T23:28:31.377Z,100.00
2023-05-24T23:33:34.286Z,100.00
2023-05-24T23:38:38.497Z,100.00
2023-05-24T23:43:41.669Z,100.00
2023-05-24T23:48:44.485Z,100.00
2023-05-24T23:53:48.685Z,100.00
2023-05-24T23:58:51.677Z,100.00
